Bei Facebook empfehlenBei Twitter postenGoogle plusPinterest

Das Wetter im Erzgebirge am 18.10.2015

Wetter und Klima am 18.10.2015 Holzhau im Erzgebirge (630m ü.NN)
Letzte gemessene Temperatur und Uhrzeit der Messung23:45:00 Uhr1.90 °C
Temperatur (Maximum / Höchstwert) und Uhrzeit der Messung14:30:00 Uhr7.40 °C
Temperatur (Minimum / Tiefstwert) und Uhrzeit der Messung23:45:001.90 °C
Errechneter Absolutwert der Temperaturschwankungen zwischen Tmin und Tmax des Tages5.50 K
Errechnete Tagesmitteltemperatur4.89479 °C
Gesamt - Niederschlag des Tages (in flüssiger Form)0.00 Liter / m²
Luftdruck (Maximum / Höchstwert) und Zeitpunkt der Messung23:45:00 Uhr1015.00 hPa
Luftdruck (Minimum / Tiefstwert) und Zeitpunkt der Messung07:45:00 Uhr1013.50 hPa
Errechneter Absolutwert der Luftdruckschwankungen des Tages1.50 hPa
Höchste gemessene Windgeschwindigkeit und Uhrzeit der Messung12:15:00 Uhr183.60 km/h
Errechnete Windhäufigkeit in Relation zu den Messwerten des Tages4.16667 %
Niedrigste Windkühle (Windchill) und Zeitpunkt der Messung12:15:00 Uhr-2.90 °C
Taupunkt (Maximum / Höchstwert) und Uhrzeit der Messung13:45:00 Uhr6.80 °C
Taupunkt (Minimum / Tiefstwert) und Uhrzeit der Messung23:45:001.00 °C
Anzahl der automatisch eingelesenen Messwerte 96

Detaillierte Wetter- und Klima- Messwerte für den 18.10.2015 in Holzhau im Erzgebirge (630m ü.NN)
ZeitTemperaturLuftdruckRel. LuftfeuchteWindWindrichtungWindchillTaupunktNiederschlag l/m²
23:45:001.90 °C1015.00 hPa94.00 %1.00 °C 
23:30:002.30 °C1015.00 hPa94.00 %1.40 °C 
23:15:002.50 °C1014.90 hPa94.00 %1.60 °C 
23:00:002.80 °C1014.80 hPa94.00 %1.90 °C 
22:45:003.30 °C1014.70 hPa94.00 %2.40 °C 
22:30:003.80 °C1014.80 hPa94.00 %2.90 °C 
22:15:004.10 °C1015.00 hPa95.00 %3.40 °C 
22:00:004.20 °C1014.90 hPa95.00 %3.50 °C 
21:45:004.30 °C1014.90 hPa95.00 %3.60 °C 
21:30:004.30 °C1014.80 hPa95.00 %3.60 °C 
21:15:004.30 °C1014.70 hPa94.00 %3.40 °C 
21:00:004.30 °C1014.70 hPa94.00 %3.40 °C 
20:45:004.40 °C1014.70 hPa94.00 %3.50 °C 
20:30:004.40 °C1014.60 hPa94.00 %3.50 °C 
20:15:004.40 °C1014.50 hPa94.00 %3.50 °C 
20:00:004.40 °C1014.50 hPa94.00 %3.50 °C 
19:45:004.40 °C1014.40 hPa94.00 %3.50 °C 
19:30:004.50 °C1014.50 hPa94.00 %3.60 °C 
19:15:004.50 °C1014.40 hPa94.00 %3.60 °C 
19:00:004.60 °C1014.20 hPa94.00 %3.70 °C 
18:45:004.80 °C1014.10 hPa94.00 %3.90 °C 
18:30:004.90 °C1014.10 hPa94.00 %4.00 °C 
18:15:005.10 °C1014.10 hPa94.00 %4.20 °C 
18:00:005.30 °C1014.10 hPa94.00 %4.40 °C 
17:45:005.40 °C1014.20 hPa94.00 %4.50 °C 
17:30:005.50 °C1014.20 hPa94.00 %4.60 °C 
17:15:005.50 °C1014.10 hPa94.00 %4.60 °C 
17:00:005.60 °C1014.20 hPa94.00 %4.70 °C 
16:45:005.90 °C1014.00 hPa94.00 %5.00 °C 
16:30:006.10 °C1014.00 hPa94.00 %5.20 °C 
16:15:006.10 °C1014.00 hPa94.00 %5.20 °C 
16:00:006.10 °C1014.00 hPa94.00 %5.20 °C 
15:45:006.20 °C1013.80 hPa94.00 %5.30 °C 
15:30:006.40 °C1014.00 hPa94.00 %5.50 °C 
15:15:006.50 °C1013.80 hPa94.00 %5.60 °C 
15:00:006.80 °C1013.80 hPa95.00 %6.10 °C 
14:45:007.20 °C1013.80 hPa95.00 %6.50 °C 
14:30:007.40 °C1014.10 hPa95.00 %6.70 °C 
14:15:007.20 °C1014.10 hPa96.00 %6.60 °C 
14:00:007.20 °C1014.20 hPa96.00 %6.60 °C 
13:45:007.40 °C1014.20 hPa96.00 %6.80 °C 
13:30:007.00 °C1014.10 hPa96.00 %6.40 °C 
13:15:006.60 °C1014.10 hPa96.00 %6.00 °C 
13:00:006.40 °C1014.00 hPa96.00 %5.80 °C 
12:45:006.40 °C1014.20 hPa96.00 %5.80 °C 
12:30:006.40 °C1014.20 hPa96.00 %5.80 °C 
12:15:006.60 °C1014.30 hPa96.00 %183.60 km/hSO-2.90 °C6.00 °C 
12:00:006.60 °C1014.10 hPa97.00 %3.24 km/hSSO6.60 °C6.20 °C 
11:45:006.60 °C1014.30 hPa97.00 %6.84 km/hSW5.30 °C6.20 °C 
11:30:006.60 °C1014.20 hPa97.00 %2.88 km/hSW6.60 °C6.20 °C 
11:15:006.80 °C1014.20 hPa97.00 %6.40 °C 
11:00:006.90 °C1014.20 hPa97.00 %6.50 °C 
10:45:006.80 °C1014.20 hPa97.00 %6.40 °C 
10:30:006.40 °C1014.20 hPa97.00 %6.00 °C 
10:15:006.10 °C1014.10 hPa97.00 %5.70 °C 
10:00:005.90 °C1014.20 hPa97.00 %5.50 °C 
09:45:005.60 °C1013.90 hPa97.00 %5.20 °C 
09:30:004.90 °C1014.10 hPa97.00 %4.50 °C 
09:15:004.20 °C1014.10 hPa97.00 %3.80 °C 
09:00:003.90 °C1014.00 hPa97.00 %3.50 °C 
08:45:003.80 °C1014.00 hPa97.00 %3.40 °C 
08:30:003.60 °C1014.00 hPa97.00 %3.20 °C 
08:15:003.30 °C1013.80 hPa96.00 %2.70 °C 
08:00:003.40 °C1013.60 hPa97.00 %3.00 °C 
07:45:003.60 °C1013.50 hPa97.00 %3.20 °C 
07:30:003.80 °C1013.80 hPa97.00 %3.40 °C 
07:15:003.80 °C1013.60 hPa97.00 %3.40 °C 
07:00:003.80 °C1013.60 hPa97.00 %3.40 °C 
06:45:003.80 °C1013.70 hPa97.00 %3.40 °C 
06:30:003.90 °C1013.60 hPa97.00 %3.50 °C 
06:15:003.90 °C1013.60 hPa97.00 %3.50 °C 
06:00:003.90 °C1013.50 hPa97.00 %3.50 °C 
05:45:004.00 °C1013.70 hPa97.00 %3.60 °C 
05:30:004.10 °C1013.50 hPa97.00 %3.70 °C 
05:15:004.10 °C1013.50 hPa97.00 %3.70 °C 
05:00:004.20 °C1013.70 hPa97.00 %3.80 °C 
04:45:004.30 °C1013.60 hPa97.00 %3.90 °C 
04:30:004.20 °C1013.70 hPa96.00 %3.60 °C 
04:15:004.20 °C1013.90 hPa96.00 %3.60 °C 
04:00:004.20 °C1013.90 hPa96.00 %3.60 °C 
03:45:004.20 °C1013.90 hPa96.00 %3.60 °C 
03:30:004.30 °C1014.00 hPa96.00 %3.70 °C 
03:15:004.30 °C1014.00 hPa96.00 %3.70 °C 
03:00:004.30 °C1014.20 hPa96.00 %3.70 °C 
02:45:004.30 °C1014.20 hPa96.00 %3.70 °C 
02:30:004.30 °C1014.30 hPa96.00 %3.70 °C 
02:15:004.30 °C1014.10 hPa96.00 %3.70 °C 
02:00:004.30 °C1014.30 hPa96.00 %3.70 °C 
01:45:004.40 °C1014.10 hPa96.00 %3.80 °C 
01:30:004.40 °C1014.10 hPa96.00 %3.80 °C 
01:15:004.40 °C1014.30 hPa96.00 %3.80 °C 
01:00:004.40 °C1014.20 hPa96.00 %3.80 °C 
00:45:004.30 °C1014.30 hPa96.00 %3.70 °C 
00:30:004.30 °C1014.40 hPa96.00 %3.70 °C 
00:15:004.30 °C1014.50 hPa96.00 %3.70 °C 
00:00:004.20 °C1014.70 hPa96.00 %3.60 °C 

Permanenter Link zu dieser Seite: Wetter im Erzgebirge am 18.10.2015
Performance-Info: Die Erstellung der Seite / Statistik(en) / Tabelle(n) erforderte 5 Datenbankserver-Abfrage(n) und dauerte 102 Millisekunden. (Dieser Messwert ist von der Gesamt-Auslastung des Servers abhängig.)
Erzgebirge - Wetter | Erzgebirge - Wetter (Mobilgeräte) | Komplette Klimadatenbank